Time;durP1;ratioP1;P1;durP2;ratioP2;P2;SDS_P1;SDS_P2;PMS_P1;PMS_P2;Temp;Humidity;BMP_temperature;BMP_pressure;BME280_temperature;BME280_humidity;BME280_pressure;Samples;Min_cycle;Max_cycle;Signal;HPM_P1;HPM_P2
2023/10/06 20:10:32;;;;;;;7.20;3.38;;;;;;;16.94;70.98;101189.88;5135408;27;20413;-78
2023/10/06 20:13:05;;;;;;;5.13;3.60;;;;;;;16.96;71.05;101180.16;5110781;27;20142;-79
2023/10/06 20:15:36;;;;;;;7.38;3.47;;;;;;;16.95;70.89;101165.19;5113509;27;20094;-79
2023/10/06 20:18:03;;;;;;;4.30;2.60;;;;;;;16.99;71.05;101165.97;5125071;27;20047;-81
2023/10/06 20:20:31;;;;;;;9.77;3.40;;;;;;;17.01;70.65;101165.03;5118248;27;20130;-82
2023/10/06 20:22:58;;;;;;;8.95;3.13;;;;;;;17.06;70.76;101164.03;5106872;27;20050;-78
2023/10/06 20:25:25;;;;;;;7.38;3.35;;;;;;;17.02;70.60;101164.09;5099559;27;20073;-80
2023/10/06 20:27:53;;;;;;;7.15;3.70;;;;;;;17.03;70.72;101172.91;4756562;27;10000225;-81
2023/10/06 20:30:22;;;;;;;8.80;3.38;;;;;;;17.05;70.75;101164.91;5091072;27;20537;-77
2023/10/06 20:32:52;;;;;;;7.25;2.95;;;;;;;17.03;70.81;101173.75;5105188;27;20127;-79
2023/10/06 20:35:19;;;;;;;8.32;3.53;;;;;;;17.02;70.89;101171.16;5107791;27;20324;-79
2023/10/06 20:37:46;;;;;;;6.63;2.88;;;;;;;17.00;71.25;101167.69;5100685;27;20055;-77
2023/10/06 20:40:17;;;;;;;6.40;2.70;;;;;;;16.98;71.10;101175.66;5107538;27;20044;-79
2023/10/06 20:42:45;;;;;;;7.07;2.90;;;;;;;16.99;71.03;101172.13;5105711;27;20135;-80
2023/10/06 20:45:15;;;;;;;8.02;3.65;;;;;;;17.01;70.94;101175.59;5105654;27;20104;-79
2023/10/06 20:47:42;;;;;;;4.47;3.10;;;;;;;17.00;71.17;101172.97;5107955;27;20117;-78
2023/10/06 20:50:12;;;;;;;7.65;3.17;;;;;;;17.02;71.11;101172.03;5103875;27;20052;-80
2023/10/06 20:52:43;;;;;;;8.40;3.00;;;;;;;17.03;71.05;101173.75;5108063;27;20051;-80
2023/10/06 20:55:16;;;;;;;4.63;2.95;;;;;;;17.01;71.38;101177.34;5106417;27;20051;-78
2023/10/06 20:57:44;;;;;;;;;;;;;;;17.06;71.01;101172.81;5102972;27;20031;-80
2023/10/06 21:00:11;;;;;;;5.95;2.92;;;;;;;16.99;71.79;101172.13;5102505;27;20229;-79
2023/10/06 21:02:39;;;;;;;8.10;3.65;;;;;;;17.02;71.68;101176.47;5105575;27;20054;-77
2023/10/06 21:05:12;;;;;;;9.80;3.50;;;;;;;17.05;71.44;101179.00;5101936;27;20665;-80
2023/10/06 21:07:39;;;;;;;;;;;;;;;17.08;71.38;101170.13;5103695;27;20064;-77
2023/10/06 21:10:07;;;;;;;10.00;3.17;;;;;;;17.03;71.61;101179.06;5099243;27;19924;-78
2023/10/06 21:12:41;;;;;;;8.68;3.13;;;;;;;17.05;71.84;101171.06;5095209;28;20785;-78
2023/10/06 21:15:09;;;;;;;8.68;3.13;;;;;;;16.97;72.10;101168.66;5100013;27;20070;-79
2023/10/06 21:17:37;;;;;;;6.57;3.72;;;;;;;17.01;72.16;101177.34;5104948;27;20039;-79
2023/10/06 21:20:08;;;;;;;9.75;3.30;;;;;;;16.98;72.18;101166.88;5097766;27;20085;-79
2023/10/06 21:22:35;;;;;;;7.47;3.67;;;;;;;16.98;72.76;101177.44;5090914;28;20047;-80
2023/10/06 21:25:03;;;;;;;6.70;3.70;;;;;;;16.96;72.91;101173.97;5093042;28;20051;-80
2023/10/06 21:27:29;;;;;;;6.65;3.25;;;;;;;16.97;72.96;101186.28;5087618;28;20054;-79
2023/10/06 21:29:56;;;;;;;7.13;3.20;;;;;;;16.97;72.59;101173.94;5085938;27;20048;-81
2023/10/06 21:32:22;;;;;;;9.52;3.85;;;;;;;16.95;72.82;101173.13;5090850;28;20139;-80
2023/10/06 21:34:49;;;;;;;7.53;3.58;;;;;;;16.96;73.23;101176.63;5089947;28;20054;-79
2023/10/06 21:37:17;;;;;;;9.80;3.83;;;;;;;16.95;73.24;101178.41;5093507;28;20131;-80
2023/10/06 21:39:45;;;;;;;7.22;3.67;;;;;;;16.95;73.27;101178.41;5090947;27;20750;-78
2023/10/06 21:42:12;;;;;;;8.55;3.30;;;;;;;16.94;73.51;101189.88;5091322;28;20047;-79
2023/10/06 21:44:38;;;;;;;7.90;3.53;;;;;;;16.97;73.43;101173.06;5089435;28;20054;-82
2023/10/06 21:47:05;;;;;;;6.00;3.05;;;;;;;16.98;73.33;101167.72;5091051;27;20042;-77
2023/10/06 21:49:34;;;;;;;6.00;3.20;;;;;;;16.98;73.43;101169.53;5075278;28;20061;-81
2023/10/06 21:52:00;;;;;;;10.45;3.47;;;;;;;16.92;73.68;101169.69;5088655;28;20125;-79
2023/10/06 21:54:27;;;;;;;7.45;3.55;;;;;;;16.97;73.51;101168.66;5090512;28;20040;-78
2023/10/06 21:56:54;;;;;;;5.28;4.05;;;;;;;16.93;73.57;101169.63;5086949;28;20551;-79
2023/10/06 21:59:22;;;;;;;8.07;3.50;;;;;;;16.90;74.05;101155.63;5088202;28;20841;-80
2023/10/06 22:01:48;;;;;;;5.95;3.38;;;;;;;16.95;74.20;101169.63;5087640;28;20047;-80
2023/10/06 22:04:17;;;;;;;10.30;5.03;;;;;;;16.86;74.44;101168.03;5086796;28;20049;-80
2023/10/06 22:06:44;;;;;;;5.90;3.63;;;;;;;16.86;74.48;101168.03;5068135;28;20048;-80
2023/10/06 22:09:15;;;;;;;7.47;3.97;;;;;;;16.78;75.13;101147.09;5088221;28;20048;-79
2023/10/06 22:11:44;;;;;;;7.80;4.50;;;;;;;16.70;75.60;101146.44;5091836;28;20522;-78
2023/10/06 22:14:12;;;;;;;12.38;3.67;;;;;;;16.62;76.29;101148.41;5092799;28;20048;-78
2023/10/06 22:16:39;;;;;;;10.82;3.90;;;;;;;16.53;76.56;101142.47;5075184;28;20032;-78
2023/10/06 22:19:08;;;;;;;11.32;4.28;;;;;;;16.51;76.89;101153.97;5090191;28;20118;-78
2023/10/06 22:21:36;;;;;;;5.35;3.10;;;;;;;16.41;77.32;101142.75;5086208;28;20139;-81
2023/10/06 22:24:08;;;;;;;10.07;4.20;;;;;;;16.38;77.79;101141.06;5091848;28;20061;-79
2023/10/06 22:26:34;;;;;;;6.85;3.97;;;;;;;16.34;78.26;101136.75;5089822;27;20044;-77
2023/10/06 22:29:01;;;;;;;10.80;4.28;;;;;;;16.28;78.64;101133.41;5089323;28;20047;-81
2023/10/06 22:31:28;;;;;;;4.80;3.42;;;;;;;16.24;79.05;101131.75;5099400;27;20051;-77
2023/10/06 22:33:56;;;;;;;5.10;3.75;;;;;;;16.17;79.37;101136.34;5094305;28;20043;-77
2023/10/06 22:36:25;;;;;;;8.90;4.13;;;;;;;16.17;79.96;101136.34;5075257;28;20043;-81
2023/10/06 22:38:52;;;;;;;10.27;5.25;;;;;;;16.14;79.99;101137.28;5080360;28;20048;-81
2023/10/06 22:41:20;;;;;;;8.50;5.03;;;;;;;16.11;80.06;101137.34;5092757;28;20050;-78
2023/10/06 22:43:48;;;;;;;6.72;4.25;;;;;;;16.08;80.46;101139.19;5081376;28;20047;-80
2023/10/06 22:46:15;;;;;;;8.13;4.57;;;;;;;16.08;80.80;101140.06;5094301;28;20044;-79
2023/10/06 22:48:45;;;;;;;10.02;4.72;;;;;;;16.10;80.65;101132.09;5097467;27;20044;-80
2023/10/06 22:51:11;;;;;;;11.07;4.38;;;;;;;16.07;80.76;101133.03;5097207;28;20123;-79
2023/10/06 22:53:38;;;;;;;7.20;3.97;;;;;;;16.06;80.90;101133.06;5092101;28;20524;-79
2023/10/06 22:56:06;;;;;;;11.98;5.20;;;;;;;16.02;81.04;101129.63;5090724;28;20124;-78
2023/10/06 22:58:33;;;;;;;14.82;5.22;;;;;;;15.98;81.35;101139.44;5091409;28;20597;-80
2023/10/06 23:01:04;;;;;;;11.00;4.82;;;;;;;15.94;81.47;101128.97;5087837;28;20044;-80
2023/10/06 23:03:31;;;;;;;10.88;4.50;;;;;;;15.87;81.99;101120.31;5079232;28;20895;-78
2023/10/06 23:05:59;;;;;;;11.77;4.57;;;;;;;15.86;82.45;101114.16;5087671;28;20046;-77
2023/10/06 23:08:27;;;;;;;9.20;5.53;;;;;;;15.85;82.08;101122.13;5075311;28;20835;-78
2023/10/06 23:10:54;;;;;;;11.48;5.53;;;;;;;15.84;82.24;101123.91;5092341;28;20529;-82
2023/10/06 23:13:21;;;;;;;10.05;4.65;;;;;;;15.85;82.31;101127.41;5077409;28;21214;-81
2023/10/06 23:15:48;;;;;;;16.35;5.22;;;;;;;15.85;82.36;101112.44;5075866;28;20097;-78
2023/10/06 23:18:16;;;;;;;9.80;4.85;;;;;;;15.80;82.75;101114.28;5076018;28;20459;-80
2023/10/06 23:20:44;;;;;;;14.77;4.20;;;;;;;15.77;83.01;101108.22;5089006;28;20028;-78
2023/10/06 23:23:14;;;;;;;10.55;4.43;;;;;;;15.74;83.00;101103.88;5094892;28;20052;-79
2023/10/06 23:25:46;;;;;;;11.65;4.80;;;;;;;15.71;83.16;101106.59;5096252;28;20263;-80
2023/10/06 23:28:13;;;;;;;11.40;4.13;;;;;;;15.68;83.39;101110.16;5093731;28;20123;-79
2023/10/06 23:30:40;;;;;;;7.40;3.83;;;;;;;15.63;83.50;101097.97;5090577;28;20036;-78
2023/10/06 23:33:09;;;;;;;11.32;4.32;;;;;;;15.61;83.97;101098.00;5090016;28;20048;-76
2023/10/06 23:35:35;;;;;;;10.68;4.30;;;;;;;15.60;84.05;101105.94;5087440;28;20559;-76
2023/10/06 23:38:06;;;;;;;12.18;4.63;;;;;;;15.58;84.37;101102.47;5092644;28;20032;-78
2023/10/06 23:40:34;;;;;;;11.00;4.45;;;;;;;15.59;84.32;101107.75;5089905;28;20063;-78
2023/10/06 23:43:00;;;;;;;11.45;4.43;;;;;;;15.61;83.94;101105.91;5089618;27;20047;-79
2023/10/06 23:45:29;;;;;;;8.18;5.13;;;;;;;15.61;84.04;101102.41;5093429;28;20054;-79
2023/10/06 23:47:57;;;;;;;7.82;4.45;;;;;;;15.66;84.03;101097.91;5092636;28;20041;-79
2023/10/06 23:50:28;;;;;;;10.82;4.50;;;;;;;15.62;84.09;101097.09;5078443;28;20048;-78
2023/10/06 23:52:59;;;;;;;10.10;4.60;;;;;;;15.63;84.00;101101.47;5092793;28;20036;-79
2023/10/06 23:55:27;;;;;;;8.63;4.68;;;;;;;15.67;83.99;101107.53;5097117;28;20096;-77
2023/10/06 23:57:54;;;;;;;8.73;4.75;;;;;;;15.67;84.00;101111.06;5093209;28;20051;-77
